sensor_id;sensor_type;location;lat;lon;timestamp;P1;durP1;ratioP1;P2;durP2;ratioP2
26530;SDS011;14201;43.188;24.160;2024-02-23T06:37:59;12.52;;;8.63;;
26530;SDS011;14201;43.188;24.160;2024-02-23T06:40:24;17.45;;;9.35;;
26530;SDS011;14201;43.188;24.160;2024-02-23T06:45:16;12.48;;;8.70;;
26530;SDS011;14201;43.188;24.160;2024-02-23T06:47:41;12.57;;;8.25;;
26530;SDS011;14201;43.188;24.160;2024-02-23T06:50:09;14.70;;;8.45;;
26530;SDS011;14201;43.188;24.160;2024-02-23T06:52:35;14.13;;;9.13;;
26530;SDS011;14201;43.188;24.160;2024-02-23T06:55:02;12.20;;;8.40;;
26530;SDS011;14201;43.188;24.160;2024-02-23T06:57:28;13.27;;;7.97;;
26530;SDS011;14201;43.188;24.160;2024-02-23T06:59:56;16.00;;;8.38;;
26530;SDS011;14201;43.188;24.160;2024-02-23T07:02:21;15.48;;;9.05;;
26530;SDS011;14201;43.188;24.160;2024-02-23T07:04:47;13.25;;;8.48;;
26530;SDS011;14201;43.188;24.160;2024-02-23T07:07:12;14.63;;;8.55;;
26530;SDS011;14201;43.188;24.160;2024-02-23T07:09:38;17.13;;;8.60;;
26530;SDS011;14201;43.188;24.160;2024-02-23T07:12:04;18.45;;;9.57;;
26530;SDS011;14201;43.188;24.160;2024-02-23T07:14:30;16.30;;;9.50;;
26530;SDS011;14201;43.188;24.160;2024-02-23T07:16:55;13.30;;;9.15;;
26530;SDS011;14201;43.188;24.160;2024-02-23T07:24:12;14.48;;;8.93;;
26530;SDS011;14201;43.188;24.160;2024-02-23T07:26:38;16.25;;;8.55;;
26530;SDS011;14201;43.188;24.160;2024-02-23T07:31:29;15.07;;;9.05;;
26530;SDS011;14201;43.188;24.160;2024-02-23T07:33:55;12.63;;;8.55;;
26530;SDS011;14201;43.188;24.160;2024-02-23T07:36:20;12.38;;;8.07;;
26530;SDS011;14201;43.188;24.160;2024-02-23T07:38:46;15.15;;;8.52;;
26530;SDS011;14201;43.188;24.160;2024-02-23T15:29:59;3.92;;;1.95;;
26530;SDS011;14201;43.188;24.160;2024-02-23T15:32:25;4.30;;;2.15;;
26530;SDS011;14201;43.188;24.160;2024-02-23T15:34:50;2.88;;;2.00;;
26530;SDS011;14201;43.188;24.160;2024-02-23T15:37:16;2.20;;;1.70;;
26530;SDS011;14201;43.188;24.160;2024-02-23T15:39:42;2.78;;;1.98;;
26530;SDS011;14201;43.188;24.160;2024-02-23T15:42:08;3.22;;;1.80;;
26530;SDS011;14201;43.188;24.160;2024-02-23T15:44:34;2.90;;;2.08;;
26530;SDS011;14201;43.188;24.160;2024-02-23T15:47:00;3.58;;;1.92;;
26530;SDS011;14201;43.188;24.160;2024-02-23T15:49:26;2.70;;;1.70;;
26530;SDS011;14201;43.188;24.160;2024-02-23T15:51:51;2.25;;;1.70;;
26530;SDS011;14201;43.188;24.160;2024-02-23T15:54:17;2.17;;;1.50;;
26530;SDS011;14201;43.188;24.160;2024-02-23T15:56:43;4.53;;;1.80;;
26530;SDS011;14201;43.188;24.160;2024-02-23T15:59:08;4.20;;;2.30;;
26530;SDS011;14201;43.188;24.160;2024-02-23T16:01:35;2.72;;;1.90;;
26530;SDS011;14201;43.188;24.160;2024-02-23T16:57:34;4.55;;;1.80;;
26530;SDS011;14201;43.188;24.160;2024-02-23T17:00:00;4.45;;;1.92;;
26530;SDS011;14201;43.188;24.160;2024-02-23T17:02:26;2.90;;;1.92;;
26530;SDS011;14201;43.188;24.160;2024-02-23T17:04:51;3.38;;;1.80;;
26530;SDS011;14201;43.188;24.160;2024-02-23T17:07:17;4.43;;;1.90;;
26530;SDS011;14201;43.188;24.160;2024-02-23T17:09:43;3.85;;;1.83;;
26530;SDS011;14201;43.188;24.160;2024-02-23T17:12:14;4.55;;;2.33;;
26530;SDS011;14201;43.188;24.160;2024-02-23T17:14:43;6.60;;;2.92;;
26530;SDS011;14201;43.188;24.160;2024-02-23T17:17:10;5.05;;;2.70;;
26530;SDS011;14201;43.188;24.160;2024-02-23T17:19:36;3.67;;;2.80;;
26530;SDS011;14201;43.188;24.160;2024-02-23T17:22:04;5.93;;;2.70;;
26530;SDS011;14201;43.188;24.160;2024-02-23T17:24:30;5.38;;;2.53;;
26530;SDS011;14201;43.188;24.160;2024-02-23T17:26:55;4.18;;;2.90;;
26530;SDS011;14201;43.188;24.160;2024-02-23T17:29:23;5.25;;;2.85;;
26530;SDS011;14201;43.188;24.160;2024-02-23T17:31:50;4.82;;;2.65;;
26530;SDS011;14201;43.188;24.160;2024-02-23T17:34:15;4.18;;;3.15;;
26530;SDS011;14201;43.188;24.160;2024-02-23T17:36:41;3.75;;;2.63;;
26530;SDS011;14201;43.188;24.160;2024-02-23T17:39:13;5.40;;;2.75;;
26530;SDS011;14201;43.188;24.160;2024-02-23T17:41:42;6.65;;;3.28;;
26530;SDS011;14201;43.188;24.160;2024-02-23T17:44:08;9.43;;;5.00;;
26530;SDS011;14201;43.188;24.160;2024-02-23T17:46:34;4.60;;;3.03;;
26530;SDS011;14201;43.188;24.160;2024-02-23T17:49:01;5.82;;;3.78;;
26530;SDS011;14201;43.188;24.160;2024-02-23T17:51:26;7.75;;;3.05;;
26530;SDS011;14201;43.188;24.160;2024-02-23T17:53:52;6.35;;;3.55;;
26530;SDS011;14201;43.188;24.160;2024-02-23T17:56:18;4.82;;;2.97;;
26530;SDS011;14201;43.188;24.160;2024-02-23T17:58:44;10.55;;;3.88;;
26530;SDS011;14201;43.188;24.160;2024-02-23T18:01:09;9.25;;;3.05;;
26530;SDS011;14201;43.188;24.160;2024-02-23T18:03:35;5.85;;;3.63;;
26530;SDS011;14201;43.188;24.160;2024-02-23T18:06:01;5.43;;;3.35;;
26530;SDS011;14201;43.188;24.160;2024-02-23T18:08:26;5.97;;;3.80;;
26530;SDS011;14201;43.188;24.160;2024-02-23T18:10:52;6.90;;;3.45;;
26530;SDS011;14201;43.188;24.160;2024-02-23T18:13:18;6.53;;;3.33;;
26530;SDS011;14201;43.188;24.160;2024-02-23T18:15:43;6.32;;;3.45;;
26530;SDS011;14201;43.188;24.160;2024-02-23T18:18:09;5.43;;;3.42;;
26530;SDS011;14201;43.188;24.160;2024-02-23T18:20:36;7.32;;;3.55;;
26530;SDS011;14201;43.188;24.160;2024-02-23T18:23:02;9.27;;;4.90;;
26530;SDS011;14201;43.188;24.160;2024-02-23T18:25:28;8.00;;;4.75;;
26530;SDS011;14201;43.188;24.160;2024-02-23T18:27:54;8.90;;;3.85;;
26530;SDS011;14201;43.188;24.160;2024-02-23T18:30:19;8.10;;;3.50;;
26530;SDS011;14201;43.188;24.160;2024-02-23T18:32:45;5.90;;;3.10;;
26530;SDS011;14201;43.188;24.160;2024-02-23T18:35:11;9.32;;;3.70;;
26530;SDS011;14201;43.188;24.160;2024-02-23T18:37:37;7.30;;;3.80;;
26530;SDS011;14201;43.188;24.160;2024-02-23T18:40:03;8.73;;;3.88;;
26530;SDS011;14201;43.188;24.160;2024-02-23T18:42:29;6.53;;;3.60;;
26530;SDS011;14201;43.188;24.160;2024-02-23T18:44:55;8.50;;;4.18;;
26530;SDS011;14201;43.188;24.160;2024-02-23T18:47:25;7.38;;;3.83;;
26530;SDS011;14201;43.188;24.160;2024-02-23T18:49:50;6.85;;;4.00;;
26530;SDS011;14201;43.188;24.160;2024-02-23T18:52:16;9.20;;;3.88;;
26530;SDS011;14201;43.188;24.160;2024-02-23T18:54:42;8.73;;;3.97;;
26530;SDS011;14201;43.188;24.160;2024-02-23T18:57:11;11.20;;;5.55;;
26530;SDS011;14201;43.188;24.160;2024-02-23T18:59:37;10.90;;;4.68;;
26530;SDS011;14201;43.188;24.160;2024-02-23T19:02:02;8.18;;;4.90;;
26530;SDS011;14201;43.188;24.160;2024-02-23T19:04:28;10.07;;;4.70;;
26530;SDS011;14201;43.188;24.160;2024-02-23T19:06:55;9.73;;;4.80;;
26530;SDS011;14201;43.188;24.160;2024-02-23T19:09:21;13.77;;;4.72;;
26530;SDS011;14201;43.188;24.160;2024-02-23T19:11:46;8.80;;;5.47;;
26530;SDS011;14201;43.188;24.160;2024-02-23T19:14:12;9.07;;;4.78;;
26530;SDS011;14201;43.188;24.160;2024-02-23T19:16:38;9.05;;;5.45;;
26530;SDS011;14201;43.188;24.160;2024-02-23T19:19:04;7.22;;;4.65;;
26530;SDS011;14201;43.188;24.160;2024-02-23T19:21:31;6.38;;;3.90;;
26530;SDS011;14201;43.188;24.160;2024-02-23T19:23:56;7.05;;;4.10;;
26530;SDS011;14201;43.188;24.160;2024-02-23T19:26:22;9.45;;;4.25;;
26530;SDS011;14201;43.188;24.160;2024-02-23T19:28:49;6.53;;;3.83;;
26530;SDS011;14201;43.188;24.160;2024-02-23T19:31:15;10.80;;;4.20;;
26530;SDS011;14201;43.188;24.160;2024-02-23T19:33:42;7.05;;;4.60;;
26530;SDS011;14201;43.188;24.160;2024-02-23T19:36:08;12.48;;;7.43;;
26530;SDS011;14201;43.188;24.160;2024-02-23T19:38:35;15.52;;;8.77;;
26530;SDS011;14201;43.188;24.160;2024-02-23T19:41:04;10.68;;;5.50;;
26530;SDS011;14201;43.188;24.160;2024-02-23T19:43:30;11.20;;;5.38;;
26530;SDS011;14201;43.188;24.160;2024-02-23T19:45:56;11.88;;;6.72;;
26530;SDS011;14201;43.188;24.160;2024-02-23T19:48:22;12.18;;;5.18;;
26530;SDS011;14201;43.188;24.160;2024-02-23T19:50:47;10.85;;;4.97;;
26530;SDS011;14201;43.188;24.160;2024-02-23T19:53:13;9.88;;;5.40;;
26530;SDS011;14201;43.188;24.160;2024-02-23T19:55:43;10.05;;;5.65;;
26530;SDS011;14201;43.188;24.160;2024-02-23T19:58:09;11.63;;;5.68;;
26530;SDS011;14201;43.188;24.160;2024-02-23T20:00:34;12.30;;;5.45;;
26530;SDS011;14201;43.188;24.160;2024-02-23T20:03:00;9.82;;;4.85;;
26530;SDS011;14201;43.188;24.160;2024-02-23T20:05:26;9.88;;;4.93;;
26530;SDS011;14201;43.188;24.160;2024-02-23T20:07:55;10.52;;;5.32;;
26530;SDS011;14201;43.188;24.160;2024-02-23T20:10:21;10.88;;;4.90;;
26530;SDS011;14201;43.188;24.160;2024-02-23T20:12:47;8.05;;;5.43;;
26530;SDS011;14201;43.188;24.160;2024-02-23T20:15:15;8.68;;;5.32;;
26530;SDS011;14201;43.188;24.160;2024-02-23T20:17:43;10.38;;;6.05;;
26530;SDS011;14201;43.188;24.160;2024-02-23T20:20:15;10.23;;;6.22;;
26530;SDS011;14201;43.188;24.160;2024-02-23T20:22:41;13.23;;;6.40;;
26530;SDS011;14201;43.188;24.160;2024-02-23T20:25:07;10.30;;;6.78;;
26530;SDS011;14201;43.188;24.160;2024-02-23T20:27:32;8.20;;;5.30;;
26530;SDS011;14201;43.188;24.160;2024-02-23T20:29:59;9.25;;;4.07;;
26530;SDS011;14201;43.188;24.160;2024-02-23T22:02:23;9.98;;;7.20;;
26530;SDS011;14201;43.188;24.160;2024-02-23T22:04:55;13.90;;;7.57;;
26530;SDS011;14201;43.188;24.160;2024-02-23T22:07:25;11.60;;;7.18;;
26530;SDS011;14201;43.188;24.160;2024-02-23T22:09:51;14.02;;;7.57;;
26530;SDS011;14201;43.188;24.160;2024-02-23T22:12:22;9.98;;;7.35;;
26530;SDS011;14201;43.188;24.160;2024-02-23T22:14:49;12.68;;;8.02;;
26530;SDS011;14201;43.188;24.160;2024-02-23T22:17:14;14.10;;;8.10;;
26530;SDS011;14201;43.188;24.160;2024-02-23T22:19:40;13.73;;;9.10;;
26530;SDS011;14201;43.188;24.160;2024-02-23T22:24:31;17.05;;;8.98;;
26530;SDS011;14201;43.188;24.160;2024-02-23T22:26:56;11.00;;;7.30;;
26530;SDS011;14201;43.188;24.160;2024-02-23T22:29:22;12.48;;;7.65;;
26530;SDS011;14201;43.188;24.160;2024-02-23T22:31:48;11.77;;;7.73;;
26530;SDS011;14201;43.188;24.160;2024-02-23T22:36:39;12.13;;;9.20;;
26530;SDS011;14201;43.188;24.160;2024-02-23T22:39:04;13.20;;;8.80;;
26530;SDS011;14201;43.188;24.160;2024-02-23T22:41:30;20.05;;;12.40;;
26530;SDS011;14201;43.188;24.160;2024-02-23T22:43:57;13.43;;;9.55;;
26530;SDS011;14201;43.188;24.160;2024-02-23T22:46:26;15.65;;;9.15;;
26530;SDS011;14201;43.188;24.160;2024-02-23T22:48:52;12.82;;;7.00;;
26530;SDS011;14201;43.188;24.160;2024-02-23T22:51:17;13.73;;;8.25;;
26530;SDS011;14201;43.188;24.160;2024-02-23T22:53:43;16.80;;;8.52;;
26530;SDS011;14201;43.188;24.160;2024-02-23T22:56:08;15.25;;;9.15;;
26530;SDS011;14201;43.188;24.160;2024-02-23T22:58:34;15.65;;;9.40;;
26530;SDS011;14201;43.188;24.160;2024-02-23T23:00:59;17.80;;;10.70;;
26530;SDS011;14201;43.188;24.160;2024-02-23T23:03:25;18.67;;;11.57;;
26530;SDS011;14201;43.188;24.160;2024-02-23T23:05:50;21.70;;;12.75;;
26530;SDS011;14201;43.188;24.160;2024-02-23T23:08:17;11.23;;;7.57;;
26530;SDS011;14201;43.188;24.160;2024-02-23T23:10:43;13.75;;;7.68;;
26530;SDS011;14201;43.188;24.160;2024-02-23T23:13:08;12.82;;;8.38;;
26530;SDS011;14201;43.188;24.160;2024-02-23T23:15:34;11.15;;;8.65;;
26530;SDS011;14201;43.188;24.160;2024-02-23T23:18:00;13.85;;;9.68;;
26530;SDS011;14201;43.188;24.160;2024-02-23T23:20:25;16.33;;;9.93;;
26530;SDS011;14201;43.188;24.160;2024-02-23T23:22:51;15.00;;;9.30;;
26530;SDS011;14201;43.188;24.160;2024-02-23T23:25:18;18.77;;;10.07;;
26530;SDS011;14201;43.188;24.160;2024-02-23T23:27:44;16.52;;;10.80;;
26530;SDS011;14201;43.188;24.160;2024-02-23T23:30:09;14.30;;;9.65;;
26530;SDS011;14201;43.188;24.160;2024-02-23T23:32:35;15.93;;;10.02;;
26530;SDS011;14201;43.188;24.160;2024-02-23T23:35:04;17.77;;;10.25;;
26530;SDS011;14201;43.188;24.160;2024-02-23T23:37:30;17.13;;;10.15;;
26530;SDS011;14201;43.188;24.160;2024-02-23T23:39:55;19.55;;;12.88;;
26530;SDS011;14201;43.188;24.160;2024-02-23T23:42:21;14.43;;;10.38;;
26530;SDS011;14201;43.188;24.160;2024-02-23T23:44:47;12.43;;;8.45;;
26530;SDS011;14201;43.188;24.160;2024-02-23T23:47:13;15.88;;;8.60;;
26530;SDS011;14201;43.188;24.160;2024-02-23T23:49:38;12.55;;;8.60;;
26530;SDS011;14201;43.188;24.160;2024-02-23T23:52:04;12.55;;;8.70;;
26530;SDS011;14201;43.188;24.160;2024-02-23T23:54:30;11.55;;;8.07;;
26530;SDS011;14201;43.188;24.160;2024-02-23T23:56:55;16.75;;;10.30;;
26530;SDS011;14201;43.188;24.160;2024-02-23T23:59:21;14.15;;;9.23;;
